Time;durP1;ratioP1;P1;durP2;ratioP2;P2;SDS_P1;SDS_P2;PMS_P1;PMS_P2;Temp;Humidity;BMP_temperature;BMP_pressure;BME280_temperature;BME280_humidity;BME280_pressure;Samples;Min_cycle;Max_cycle;Signal;HPM_P1;HPM_P2
2023/10/19 07:46:09;;;;;;;5.63;2.97;;;;;;;13.08;100.00;94772.75;2091276;27;20556;-63
2023/10/19 07:49:00;;;;;;;7.80;3.72;;;;;;;;;;2084959;28;21145;-63
2023/10/19 07:50:03;;;;;;;5.15;3.05;;;;;;;;;;2087684;28;20239;-67
2023/10/19 07:51:04;;;;;;;12.88;3.92;;;;;;;;;;2078008;28;20250;-66
2023/10/19 07:52:10;;;;;;;6.53;3.20;;;;;;;;;;2070106;28;20300;-66
2023/10/19 07:53:12;;;;;;;9.38;3.53;;;;;;;;;;2072431;28;20196;-66
2023/10/19 07:54:13;;;;;;;8.48;2.80;;;;;;;;;;2071145;28;20761;-66
2023/10/19 07:55:18;;;;;;;5.55;2.90;;;;;;;;;;2069008;28;20596;-66
2023/10/19 07:56:20;;;;;;;6.30;3.08;;;;;;;;;;2068441;28;20613;-66
2023/10/19 07:57:22;;;;;;;5.45;2.53;;;;;;;;;;2067888;28;20194;-66
2023/10/19 07:58:24;;;;;;;8.27;2.80;;;;;;;;;;2072663;28;20269;-66
2023/10/19 07:59:25;;;;;;;13.73;2.80;;;;;;;;;;2071276;28;20229;-66
2023/10/19 08:00:29;;;;;;;7.95;2.88;;;;;;;;;;2071235;28;20511;-66
2023/10/19 08:01:31;;;;;;;3.65;2.00;;;;;;;;;;2071610;28;20197;-66
2023/10/19 08:02:34;;;;;;;6.80;2.60;;;;;;;;;;2070274;28;20189;-66
2023/10/19 08:03:35;;;;;;;6.63;2.60;;;;;;;;;;2071320;28;20194;-66
2023/10/19 08:04:36;;;;;;;4.43;2.35;;;;;;;;;;2069834;28;20555;-66
2023/10/19 08:05:38;;;;;;;6.97;2.25;;;;;;;;;;2069629;28;20214;-66
2023/10/19 08:06:40;;;;;;;7.43;1.83;;;;;;;;;;2070663;28;20278;-66
2023/10/19 08:07:44;;;;;;;7.05;1.88;;;;;;;;;;2071286;28;20217;-67
2023/10/19 08:08:46;;;;;;;6.97;2.08;;;;;;;;;;2072847;28;20197;-66
2023/10/19 08:09:47;;;;;;;6.32;2.38;;;;;;;;;;2072483;28;20193;-66
2023/10/19 08:10:49;;;;;;;5.30;2.50;;;;;;;;;;2069061;28;20213;-66
2023/10/19 08:11:55;;;;;;;4.75;2.20;;;;;;;;;;2070603;28;20182;-66
2023/10/19 08:12:56;;;;;;;8.82;2.08;;;;;;;;;;2071047;28;20187;-66
2023/10/19 08:13:59;;;;;;;2.58;1.40;;;;;;;;;;2073397;28;20197;-67
2023/10/19 08:15:01;;;;;;;5.72;2.03;;;;;;;;;;2074447;28;20181;-67
2023/10/19 08:16:03;;;;;;;2.78;1.63;;;;;;;;;;2070449;28;20209;-66
2023/10/19 08:17:05;;;;;;;7.10;2.28;;;;;;;;;;2067235;28;20197;-66
2023/10/19 08:18:06;;;;;;;3.85;1.70;;;;;;;;;;2067380;28;20189;-67
2023/10/19 08:19:08;;;;;;;7.53;2.28;;;;;;;;;;2069513;28;20555;-67
2023/10/19 08:20:15;;;;;;;4.45;2.20;;;;;;;;;;2071938;28;20275;-67
2023/10/19 08:21:17;;;;;;;5.45;1.80;;;;;;;;;;2074462;28;20233;-67
2023/10/19 08:22:19;;;;;;;10.32;2.25;;;;;;;;;;2072247;28;20649;-67
2023/10/19 08:23:24;;;;;;;4.95;1.90;;;;;;;;;;2068714;28;20313;-67
2023/10/19 08:24:28;;;;;;;7.97;2.20;;;;;;;;;;2071386;28;20194;-66
2023/10/19 08:25:30;;;;;;;4.15;1.80;;;;;;;;;;2071091;28;20228;-67
2023/10/19 08:26:48;;;;;;;5.28;2.45;;;;;;;;;;2069642;28;20190;-67
2023/10/19 08:27:51;;;;;;;8.65;2.10;;;;;;;;;;2072048;28;20248;-68
2023/10/19 08:28:52;;;;;;;6.22;2.00;;;;;;;;;;2069862;28;20210;-66
2023/10/19 08:29:55;;;;;;;3.75;2.00;;;;;;;;;;2071604;28;20186;-66
2023/10/19 08:30:56;;;;;;;3.30;1.80;;;;;;;;;;2069935;28;20209;-66
2023/10/19 08:31:59;;;;;;;5.20;2.33;;;;;;;;;;2069377;28;20186;-67
2023/10/19 08:33:01;;;;;;;4.50;1.70;;;;;;;;;;2066771;28;20189;-67
2023/10/19 08:34:03;;;;;;;4.95;2.03;;;;;;;;;;2070186;28;20190;-67
2023/10/19 08:35:06;;;;;;;3.80;1.85;;;;;;;;;;2068619;28;20304;-67
2023/10/19 08:36:15;;;;;;;5.60;2.25;;;;;;;;;;2068903;28;20185;-67
2023/10/19 08:37:17;;;;;;;6.85;2.30;;;;;;;;;;2070646;28;20203;-66
2023/10/19 08:38:18;;;;;;;6.90;1.95;;;;;;;;;;2072275;28;20553;-67
2023/10/19 08:39:19;;;;;;;3.67;2.00;;;;;;;;;;2072620;28;20257;-67
2023/10/19 08:40:23;;;;;;;5.63;1.75;;;;;;;;;;2072582;28;20236;-67
2023/10/19 08:41:24;;;;;;;3.05;1.50;;;;;;;;;;2072848;28;20219;-67
2023/10/19 08:42:25;;;;;;;4.45;1.98;;;;;;;;;;2074355;28;20197;-67
2023/10/19 08:43:28;;;;;;;3.95;1.48;;;;;;;;;;2070676;28;20197;-67
2023/10/19 08:44:30;;;;;;;3.75;1.80;;;;;;;;;;2068781;28;20198;-67
2023/10/19 08:45:32;;;;;;;5.43;1.70;;;;;;;;;;2068297;28;20243;-67
2023/10/19 08:46:35;;;;;;;1.98;1.30;;;;;;;;;;2071860;28;20193;-67
2023/10/19 08:47:37;;;;;;;4.30;1.92;;;;;;;;;;2072344;28;20217;-67
2023/10/19 08:48:39;;;;;;;5.30;1.85;;;;;;;;;;2066847;28;20851;-67
2023/10/19 08:49:41;;;;;;;4.45;1.83;;;;;;;;;;2063639;28;20552;-67
2023/10/19 08:50:43;;;;;;;4.53;1.80;;;;;;;;;;2062968;28;20292;-67
2023/10/19 08:51:45;;;;;;;3.55;1.80;;;;;;;;;;2070222;28;20186;-67
2023/10/19 08:52:47;;;;;;;4.93;1.90;;;;;;;;;;2079367;28;20219;-67
2023/10/19 08:53:49;;;;;;;7.22;1.67;;;;;;;;;;2081418;28;20188;-67
2023/10/19 08:54:50;;;;;;;6.13;2.10;;;;;;;;;;2075023;28;20189;-67
2023/10/19 08:55:54;;;;;;;3.08;1.40;;;;;;;;;;2077240;28;20220;-67
2023/10/19 08:56:56;;;;;;;4.32;1.70;;;;;;;;;;2076364;28;20194;-67
2023/10/19 08:58:00;;;;;;;3.08;1.40;;;;;;;;;;2069975;28;20191;-67
2023/10/19 08:59:02;;;;;;;5.68;1.58;;;;;;;;;;2067060;28;20249;-68
2023/10/19 09:00:06;;;;;;;5.00;2.00;;;;;;;;;;2063934;28;20217;-67
2023/10/19 09:01:09;;;;;;;4.35;1.55;;;;;;;;;;2059782;28;20225;-67
2023/10/19 09:02:11;;;;;;;4.85;1.90;;;;;;;;;;2059223;28;20198;-67
2023/10/19 09:03:13;;;;;;;6.75;2.42;;;;;;;;;;2066379;28;20187;-67
2023/10/19 09:04:17;;;;;;;4.88;1.70;;;;;;;;;;2066676;28;20198;-67
2023/10/19 09:05:27;;;;;;;4.03;1.27;;;;;;;;;;2065482;28;20202;-67
2023/10/19 09:06:30;;;;;;;4.45;2.00;;;;;;;;;;2066207;28;20201;-67
2023/10/19 09:07:34;;;;;;;4.75;1.50;;;;;;;;;;2067277;28;20212;-67
2023/10/19 09:08:38;;;;;;;4.25;2.17;;;;;;;;;;2067297;28;20201;-67
2023/10/19 09:09:40;;;;;;;11.95;2.30;;;;;;;;;;2065154;28;20214;-67
2023/10/19 09:10:45;;;;;;;5.63;1.77;;;;;;;;;;2062729;28;20272;-67
2023/10/19 09:11:48;;;;;;;4.88;1.85;;;;;;;;;;2064757;28;20221;-67
2023/10/19 09:13:02;;;;;;;8.60;2.03;;;;;;;;;;2065820;28;20193;-67
2023/10/19 09:14:04;;;;;;;10.32;2.95;;;;;;;;;;2067223;28;20193;-67
2023/10/19 09:15:20;;;;;;;6.85;2.35;;;;;;;;;;2065288;28;20799;-67
2023/10/19 09:16:22;;;;;;;5.72;1.90;;;;;;;;;;2066433;28;21051;-67
2023/10/19 09:17:30;;;;;;;5.57;1.92;;;;;;;;;;2065797;28;20199;-67
2023/10/19 09:18:31;;;;;;;3.85;1.77;;;;;;;;;;2064356;28;20199;-67
2023/10/19 09:19:37;;;;;;;6.75;2.67;;;;;;;;;;2063844;28;20206;-67
2023/10/19 09:20:38;;;;;;;9.25;2.33;;;;;;;;;;2062409;28;20226;-67
2023/10/19 09:21:39;;;;;;;5.55;2.17;;;;;;;;;;2061819;28;20199;-67
2023/10/19 09:22:44;;;;;;;5.57;2.22;;;;;;;;;;2064373;28;20202;-67
2023/10/19 09:23:47;;;;;;;5.80;2.35;;;;;;;;;;2066936;28;20186;-67
2023/10/19 09:24:49;;;;;;;6.05;2.58;;;;;;;;;;2067963;28;20201;-67
2023/10/19 09:25:54;;;;;;;12.13;2.25;;;;;;;;;;2063963;28;20702;-67
2023/10/19 09:26:55;;;;;;;4.63;2.03;;;;;;;;;;2063470;28;20415;-67
2023/10/19 09:27:59;;;;;;;5.38;2.30;;;;;;;;;;2064514;28;20830;-67
2023/10/19 09:29:01;;;;;;;5.55;2.20;;;;;;;;;;2064977;28;20186;-67
2023/10/19 09:30:04;;;;;;;5.13;1.83;;;;;;;;;;2064980;28;20657;-69
2023/10/19 09:31:09;;;;;;;6.30;2.10;;;;;;;;;;2062715;28;20194;-67
2023/10/19 09:32:13;;;;;;;4.72;1.83;;;;;;;;;;2065174;28;20221;-67
2023/10/19 09:33:17;;;;;;;8.27;1.60;;;;;;;;;;2066919;28;20224;-67
2023/10/19 09:34:19;;;;;;;7.28;1.98;;;;;;;;;;2066542;28;20507;-68
2023/10/19 09:35:21;;;;;;;10.05;2.45;;;;;;;;;;2062156;28;20205;-67
2023/10/19 09:36:25;;;;;;;5.95;2.03;;;;;;;;;;2060372;28;20202;-67
2023/10/19 09:37:27;;;;;;;4.30;2.17;;;;;;;;;;2067629;28;20198;-67
2023/10/19 09:38:28;;;;;;;3.97;2.15;;;;;;;;;;2067334;28;20211;-67
2023/10/19 09:39:36;;;;;;;5.90;2.05;;;;;;;;;;2066953;28;20206;-67
2023/10/19 09:40:38;;;;;;;5.53;2.25;;;;;;;;;;2065292;28;20222;-68
2023/10/19 09:41:40;;;;;;;3.13;1.63;;;;;;;;;;2067490;28;20266;-67
2023/10/19 09:42:46;;;;;;;4.55;2.28;;;;;;;;;;2064921;28;20721;-67
2023/10/19 09:43:48;;;;;;;7.72;1.90;;;;;;;;;;2063420;28;20202;-67
2023/10/19 09:44:54;;;;;;;6.30;1.90;;;;;;;;;;2065918;28;20297;-67
2023/10/19 09:45:58;;;;;;;5.05;2.00;;;;;;;;;;2065461;28;20721;-67
2023/10/19 09:47:03;;;;;;;4.10;1.98;;;;;;;;;;2063412;28;20781;-68
2023/10/19 09:48:05;;;;;;;6.78;2.20;;;;;;;;;;2063373;28;20190;-67
2023/10/19 09:49:11;;;;;;;5.18;2.13;;;;;;;;;;2064931;28;20205;-68
2023/10/19 09:50:12;;;;;;;5.35;1.67;;;;;;;;;;2064526;28;20191;-67
2023/10/19 09:51:16;;;;;;;6.35;1.85;;;;;;;;;;2066041;28;20220;-68
2023/10/19 09:52:18;;;;;;;8.52;1.98;;;;;;;;;;2064905;28;20202;-67
2023/10/19 09:53:20;;;;;;;5.50;1.75;;;;;;;;;;2062085;28;20190;-67
2023/10/19 09:54:37;;;;;;;6.80;2.05;;;;;;;;;;2064222;28;20193;-67
2023/10/19 09:55:41;;;;;;;3.50;1.60;;;;;;;;;;2063688;28;20221;-68
2023/10/19 09:56:46;;;;;;;4.60;2.13;;;;;;;;;;2062193;28;20564;-68
2023/10/19 09:57:53;;;;;;;4.63;1.70;;;;;;;;;;2065035;28;20202;-67
2023/10/19 09:58:57;;;;;;;5.00;1.73;;;;;;;;;;2063249;28;20190;-68
2023/10/19 10:00:08;;;;;;;10.68;1.80;;;;;;;;;;2066506;28;20192;-68
2023/10/19 10:01:13;;;;;;;6.32;2.53;;;;;;;;;;2064318;28;20260;-67
2023/10/19 10:02:15;;;;;;;6.15;1.85;;;;;;;;;;2063552;28;20203;-68
2023/10/19 10:03:36;;;;;;;2.60;1.40;;;;;;;;;;2065072;28;20210;-68
2023/10/19 10:04:39;;;;;;;4.22;1.45;;;;;;;;;;2067036;28;20232;-68
2023/10/19 10:05:41;;;;;;;6.32;1.90;;;;;;;;;;2059941;28;20218;-68
2023/10/19 10:06:55;;;;;;;7.38;2.10;;;;;;;;;;2065244;28;20210;-68
2023/10/19 10:08:15;;;;;;;5.38;1.85;;;;;;;;;;2065113;28;20190;-67
2023/10/19 10:09:21;;;;;;;3.92;1.88;;;;;;;;;;2064629;28;20302;-68
2023/10/19 10:10:23;;;;;;;4.22;1.92;;;;;;;;;;2065381;28;20248;-67
2023/10/19 10:11:28;;;;;;;6.35;2.05;;;;;;;;;;2065912;28;20280;-67
2023/10/19 10:12:30;;;;;;;4.05;2.08;;;;;;;;;;2065189;28;20285;-68
2023/10/19 10:13:37;;;;;;;3.63;1.60;;;;;;;;;;2065234;28;20194;-67
2023/10/19 10:14:52;;;;;;;4.15;1.70;;;;;;;;;;2066800;28;20719;-67
2023/10/19 10:15:57;;;;;;;4.10;2.13;;;;;;;;;;2067119;28;20224;-67
2023/10/19 10:17:02;;;;;;;7.15;2.00;;;;;;;;;;2066818;28;20186;-68
2023/10/19 10:18:11;;;;;;;7.07;1.80;;;;;;;;;;2071918;28;20209;-67
2023/10/19 10:19:19;;;;;;;4.43;1.90;;;;;;;;;;2073046;28;20182;-68
2023/10/19 10:20:21;;;;;;;5.28;1.80;;;;;;;;;;2061525;28;20201;-68
2023/10/19 10:21:26;;;;;;;3.08;1.67;;;;;;;;;;2061316;28;20198;-68
2023/10/19 10:22:27;;;;;;;6.07;1.70;;;;;;;;;;2067450;28;20205;-68
2023/10/19 10:23:32;;;;;;;6.72;1.80;;;;;;;;;;2067193;28;20205;-68
2023/10/19 10:24:33;;;;;;;4.18;2.05;;;;;;;;;;2066480;28;20243;-67
2023/10/19 10:25:35;;;;;;;7.05;2.00;;;;;;;;;;2066232;28;20679;-68
2023/10/19 10:26:57;;;;;;;5.43;2.22;;;;;;;;;;2066245;28;20667;-68
2023/10/19 10:27:58;;;;;;;4.75;2.10;;;;;;;;;;2063024;28;20190;-68
2023/10/19 10:29:14;;;;;;;3.58;1.98;;;;;;;;;;2063979;28;20209;-68
2023/10/19 10:30:16;;;;;;;4.38;2.35;;;;;;;;;;2064821;28;20210;-67
2023/10/19 10:31:24;;;;;;;5.15;1.90;;;;;;;;;;2064436;28;20611;-67
2023/10/19 10:32:44;;;;;;;10.10;2.80;;;;;;;;;;2064900;28;20202;-68
2023/10/19 10:33:51;;;;;;;4.45;2.08;;;;;;;;;;2066006;28;20281;-68
2023/10/19 10:34:52;;;;;;;6.47;1.95;;;;;;;;;;2065899;28;20608;-68
2023/10/19 10:35:54;;;;;;;6.05;2.67;;;;;;;;;;2066122;28;20730;-67
2023/10/19 10:37:02;;;;;;;3.83;2.22;;;;;;;;;;2067653;28;20183;-68
2023/10/19 10:38:05;;;;;;;8.27;2.50;;;;;;;;;;2059109;28;20193;-68
2023/10/19 10:39:14;;;;;;;5.43;2.20;;;;;;;;;;2064158;28;20191;-68
2023/10/19 10:40:16;;;;;;;7.53;2.30;;;;;;;;;;2067571;28;20727;-68
2023/10/19 10:47:16;;;;;;;5.15;1.90;;;;;;;15.49;96.89;94729.53;2101300;27;20551;-68
